• Join FlightAware (Why Join?)
  • Login
  • US Flag 
04:12AM EDT


 

Airport Tracker/Info


-or-


 

Live Flight TrackerFlight Track Log ✈ N589H ✈ 10-Apr-2014 ✈ KAPF - CYOO

Flight Track Log - Related Links

Times and Time Zones

All times are in EDT time to prevent confusion due to time zone crossing. See the N589H flight status page for this flight to view local times or setup timezone preferences in your user account.

Time Position Orientation Groundspeed Altitude Reporting Facility
EDT Latitude Longitude Course Direction KTS MPH feet Rate Location/Type
10:27AM 26.2389 -81.7522 24° Northeast 206 237 3,500  Level Miami Center
10:28AM 26.2894 -81.7972 321° Northwest 214 246 5,100 1,500 Climbing Miami Center
10:29AM 26.3442 -81.8378 326° Northwest 235 270 6,600 1,920 Climbing Miami Center
10:30AM 26.4022 -81.8100 23° Northeast 209 241 9,100 2,100 Climbing Miami Center
10:31AM 26.9250 -81.6296 11° North  Level FlightAware Approximate
10:31AM 26.4511 -81.7764 32° Northeast 207 238 11,000  Level Miami Center
10:32AM 27.0129 -81.6019 24° Northeast  Level FlightAware Approximate
10:32AM 26.5050 -81.7378 North 217 250 13,100  Level Miami Center
10:33AM 26.5637 -81.7167 North  Level FlightAware Approximate
10:33AM 26.5625 -81.6975 32° Northeast 226 260 15,000  Level Miami Center
10:34AM 26.6211 -81.6692 23° Northeast 246 283 16,500 1,380 Climbing Miami Center
10:35AM 26.6911 -81.6611 North 236 272 17,900 1,440 Climbing Miami Center
10:36AM 26.7561 -81.6500 North 242 278 19,500 1,440 Climbing Miami Center
10:38AM 26.9075 -81.6239 North 258 297 22,400 1,080 Climbing Miami Center
10:39AM 26.9886 -81.6092 North 280 322 23,000 480 Climbing Miami Center
10:40AM 27.0783 -81.5933 North 307 353 23,500 1,200 Climbing Miami Center
10:41AM 27.1761 -81.5956 North  Level FlightAware Approximate
10:41AM 27.1611 -81.5789 North 292 336 25,600  Level Miami Center
10:43AM 27.3175 -81.5519 North 274 315 28,000 1,080 Climbing Miami Center
10:44AM 27.4000 -81.5375 North 283 326 29,100 960 Climbing Miami Center
10:45AM 27.4764 -81.5233 North 284 327 30,000 660 Climbing Miami Center
10:47AM 27.6453 -81.4939 North 291 335 31,300 540 Climbing Miami Center
10:48AM 27.7317 -81.4783 North 297 342 31,800 540 Climbing Miami Center
10:50AM 27.9011 -81.4486 North 300 345 33,000 540 Climbing Miami Center
10:51AM 27.9861 -81.4333 North 304 350 33,500 420 Climbing Miami Center
10:53AM 28.0714 -81.4189 North 306 352 33,900 480 Climbing Miami Center
10:54AM 28.1661 -81.4014 North 308 354 34,500 300 Climbing Miami Center
10:56AM 28.3461 -81.3689 North 314 361 35,000 120 Climbing Miami Center
10:57AM 28.4331 -81.3542 North 326 375 35,000  Level Miami Center
10:58AM 28.5258 -81.3361 10° North 334 384 35,000  Level Miami Center
10:59AM 28.6164 -81.3458 355° North 333 383 35,000  Level Jacksonville Center
11:00AM 28.6978 -81.3542 355° North 333 383 35,000  Level Jacksonville Center
11:01AM 28.7897 -81.3597 357° North 333 383 35,000  Level Jacksonville Center
11:02AM 28.8839 -81.3703 354° North 333 383 35,000  Level Jacksonville Center
11:03AM 28.9778 -81.3783 356° North 333 383 35,000  Level Jacksonville Center
11:05AM 29.1597 -81.3969 355° North 328 377 35,000  Level Jacksonville Center
11:06AM 29.2517 -81.4050 356° North 328 377 35,000  Level Jacksonville Center
11:07AM 29.3414 -81.4131 356° North 328 377 35,000  Level Jacksonville Center
11:08AM 29.4372 -81.3975 North 328 377 35,000  Level Jacksonville Center
11:09AM 29.5289 -81.3842 North 333 383 35,000  Level Jacksonville Center
11:10AM 29.6228 -81.3731 North 333 383 35,000  Level Jacksonville Center
11:11AM 29.7167 -81.3572 North 333 383 35,000  Level Jacksonville Center
11:12AM 29.8125 -81.3439 North 333 383 35,000  Level Jacksonville Center
11:13AM 29.9083 -81.3303 North 333 383 35,000  Level Jacksonville Center
11:15AM 30.0939 -81.3033 North 333 383 35,000  Level Jacksonville Center
11:16AM 30.1875 -81.2897 North 333 383 35,000  Level Jacksonville Center
11:17AM 30.2833 -81.2761 North 333 383 35,000  Level Jacksonville Center
11:18AM 30.3897 -81.2597 North 333 383 35,000  Level Jacksonville Center
11:19AM 30.4814 -81.2486 North 333 383 35,000  Level Jacksonville Center
11:20AM 30.5772 -81.2350 North 333 383 35,000  Level Jacksonville Center
11:21AM 30.6731 -81.2211 North 338 389 35,000  Level Jacksonville Center
11:22AM 30.7711 -81.2075 North 343 395 35,000  Level Jacksonville Center
11:23AM 30.8650 -81.1961 North 343 395 35,000  Level Jacksonville Center
11:24AM 30.9608 -81.1822 North 348 400 35,000  Level Jacksonville Center
11:25AM 31.0567 -81.1683 North 348 400 35,000  Level Jacksonville Center
11:26AM 31.1400 -81.1547 North 348 400 35,000  Level Jacksonville Center
11:27AM 31.2442 -81.1406 North 348 400 35,000  Level Jacksonville Center
11:28AM 31.3381 -81.1292 North 348 400 35,000  Level Jacksonville Center
11:29AM 31.4339 -81.1150 North 348 400 35,000  Level Jacksonville Center
11:30AM 31.5192 -81.1014 North 348 400 35,000  Level Jacksonville Center
11:31AM 31.6233 -81.0869 North 348 400 35,000  Level Jacksonville Center
11:32AM 31.7172 -81.0731 North 348 400 35,000  Level Jacksonville Center
11:33AM 31.8047 -81.0617 North 343 395 35,000  Level Jacksonville Center
11:34AM 31.9067 -81.0447 North 343 395 35,000  Level Jacksonville Center
11:35AM 31.9922 -81.0308 North 343 395 35,000  Level Jacksonville Center
11:36AM 32.0964 -81.0167 North 343 395 35,000  Level Jacksonville Center
11:37AM 32.1942 -81.0022 North 348 400 35,000  Level Jacksonville Center
11:38AM 32.2878 -80.9881 North 343 395 35,000  Level Jacksonville Center
11:39AM 32.3839 -80.9761 North 343 395 35,000  Level Jacksonville Center
11:40AM 32.4692 -80.9619 North 343 395 35,000  Level Jacksonville Center
11:42AM 32.6608 -80.9333 North 343 395 35,000  Level Jacksonville Center
11:43AM 32.7544 -80.9214 North 343 395 35,000  Level Jacksonville Center
11:44AM 32.8481 -80.9044 North 343 395 35,000  Level Jacksonville Center
11:45AM 32.9419 -80.8925 North 343 395 35,000  Level Jacksonville Center
11:46AM 33.0378 -80.8781 North 343 395 35,000  Level Jacksonville Center
11:47AM 33.1314 -80.8636 North 343 395 35,000  Level Jacksonville Center
11:48AM 33.2250 -80.8514 North 343 395 35,000  Level Jacksonville Center
11:50AM 33.4125 -80.8222 North 338 389 35,000  Level Jacksonville Center
11:51AM 33.5042 -80.8078 North 338 389 35,000  Level Jacksonville Center
11:52AM 33.5997 -80.7931 North 338 389 35,000  Level Jacksonville Center
11:53AM 33.6914 -80.7783 North 332 382 35,000  Level Jacksonville Center
11:54AM 33.7831 -80.7661 North 332 382 35,000  Level Jacksonville Center
11:55AM 33.8767 -80.7514 North 332 382 35,000  Level Jacksonville Center
11:56AM 33.9703 -80.7367 North 332 382 35,000  Level Jacksonville Center
11:57AM 34.0619 -80.7242 North 332 382 35,000  Level Jacksonville Center
11:58AM 34.1578 -80.7119 North 332 382 35,000  Level Jacksonville Center
11:59AM 34.2511 -80.6944 North 332 382 35,000  Level Jacksonville Center
12:00PM 34.3408 -80.6819 North 332 382 35,000  Level Jacksonville Center
12:01PM 34.5053 -80.6536 North 337 388 35,000  Level Atlanta Center
12:02PM 34.5986 -80.6397 North 337 388 35,000  Level Atlanta Center
12:03PM 34.6903 -80.6283 North 337 388 35,000  Level Atlanta Center
12:05PM 34.8772 -80.5981 North 337 388 35,000  Level Atlanta Center
12:06PM 34.9706 -80.5814 North 327 376 35,000  Level Atlanta Center
12:07PM 35.0619 -80.5675 North 333 383 35,000  Level Atlanta Center
12:08PM 35.1575 -80.5533 North 333 383 35,000  Level Atlanta Center
12:09PM 35.2489 -80.5392 North 333 383 35,000  Level Atlanta Center
12:10PM 35.3403 -80.5228 North 333 383 35,000  Level Atlanta Center
12:11PM 35.4358 -80.5083 North 334 384 35,000  Level Atlanta Center
12:12PM 35.5272 -80.4917 North 334 384 35,000  Level Atlanta Center
12:13PM 35.6208 -80.4800 North 329 379 35,000  Level Atlanta Center
12:14PM 35.7122 -80.4658 North 329 379 35,000  Level Atlanta Center
12:16PM 35.8989 -80.4344 10° North 334 384 35,000  Level Atlanta Center
12:17PM 35.9842 -80.4206 North 334 384 35,000  Level Atlanta Center
12:18PM 36.0775 -80.4033 North 334 384 35,000  Level Atlanta Center
12:19PM 36.1708 -80.3889 North 329 379 35,000  Level Atlanta Center
12:21PM 36.2648 -80.3618 13° North  Level FlightAware Approximate
12:21PM 36.3761 -80.3594 13° North 350 403 35,000  Level Washington Center
12:22PM 36.4769 -80.3397 North 350 403 35,000  Level Washington Center
12:23PM 36.5694 -80.3247 North 345 397 35,000  Level Washington Center
12:24PM 36.6661 -80.3100 North 339 390 35,000  Level Washington Center
12:26PM 36.8508 -80.2797 North 334 384 35,000  Level Washington Center
12:27PM 36.9347 -80.2667 North 334 384 35,000  Level Washington Center
12:29PM 37.1217 -80.2364 10° North 334 384 35,000  Level Washington Center
12:30PM 37.2161 -80.2211 North 334 384 35,000  Level Washington Center
12:31PM 37.3192 -80.2039 North 334 384 35,000  Level Washington Center
12:32PM 37.4133 -80.1914 North 334 384 35,000  Level Washington Center
12:33PM 37.5081 -80.1736 North 334 384 35,000  Level Washington Center
12:34PM 37.6003 -80.1581 North 334 384 35,000  Level Washington Center
12:35PM 37.6947 -80.1428 North 334 384 35,000  Level Washington Center
12:36PM 37.7808 -80.1297 North 339 390 35,000  Level Washington Center
12:37PM 37.8772 -80.1144 North 339 390 35,000  Level Washington Center
12:39PM 38.0664 -80.0808 11° North 334 384 35,000  Level Washington Center
12:40PM 38.1714 -80.0633 North 340 391 35,000  Level Washington Center
12:42PM 38.3256 -80.0314 North 346 398 35,000  Level Cleveland Center
12:43PM 38.4544 -80.0169 North 340 391 35,000  Level Washington Center
12:44PM 38.5469 -79.9983 North 335 386 35,000  Level Washington Center
12:45PM 38.6331 -79.9850 North 341 392 35,000  Level Washington Center
12:46PM 38.7253 -79.9692 North 336 387 35,000  Level Washington Center
12:50PM 39.1061 -79.8958 North 336 387 35,000  Level Cleveland Center
12:53PM 39.2908 -79.8633 North 336 387 35,000  Level Cleveland Center
12:54PM 39.3842 -79.8467 North 337 388 35,000  Level Cleveland Center
12:57PM 39.6828 -79.7947 10° North 340 391 35,000  Level Cleveland Center
12:58PM 39.7758 -79.7794 North 340 391 35,000  Level Cleveland Center
12:59PM 39.8697 -79.7622 North 340 391 35,000  Level Cleveland Center
01:00PM 39.9633 -79.7461 North 340 391 35,000  Level Cleveland Center
01:02PM 40.1683 -79.7092 North 340 391 35,000  Level Cleveland Center
01:03PM 40.2611 -79.6928 North 340 391 35,000  Level Cleveland Center
01:04PM 40.3542 -79.6747 North 340 391 35,000  Level Cleveland Center
01:05PM 40.4475 -79.6575 North 340 391 35,000  Level Cleveland Center
01:07PM 40.6556 -79.6197 North 343 395 35,000  Level Cleveland Center
01:08PM 40.7514 -79.6019 North 346 398 35,000  Level Cleveland Center
01:09PM 40.8464 -79.5850 North 346 398 35,000  Level Cleveland Center
01:10PM 40.9417 -79.5672 North 346 398 35,000  Level Cleveland Center
01:12PM 41.1508 -79.5281 North 346 398 35,000  Level Cleveland Center
01:13PM 41.2461 -79.5103 North 346 398 35,000  Level Cleveland Center
01:15PM 41.4428 -79.4728 10° North 345 397 35,000  Level Cleveland Center
01:16PM 41.5386 -79.4547 North 346 398 35,000  Level Cleveland Center
01:17PM 41.6344 -79.4358 North 348 400 35,000  Level Cleveland Center
01:19PM 41.8267 -79.3994 North 347 399 35,000 -60 Level Cleveland Center
01:20PM 41.9439 -79.3769 North 354 407 34,900 -840 Descending Cleveland Center
01:23PM 42.2000 -79.3000 11° North 380 437 32,000 -1,140 Descending Toronto Center
01:24PM 42.3167 -79.3000 360° North 380 437 30,900 -1,080 Descending Toronto Center
01:25PM 42.4167 -79.2667 14° North 380 437 29,900 -1,140 Descending Toronto Center
01:26PM 42.4708 -79.2761 353° North 374 430 29,200 -1,860 Descending Cleveland Center
01:27PM 42.5800 -79.2503 10° North 396 456 27,000 -1,920 Descending Cleveland Center
01:29PM 42.8017 -79.1922 11° North 362 417 23,300 -1,680 Descending Cleveland Center
01:30PM 42.9014 -79.1678 10° North 363 418 21,800 -1,500 Descending Cleveland Center
01:31PM 42.9992 -79.1414 11° North 360 414 20,200 -1,560 Descending Cleveland Center
01:32PM 43.0983 -79.1156 11° North 360 414 18,600 -1,680 Descending Cleveland Center
01:33PM 43.1919 -79.0908 11° North 347 399 16,800 -2,280 Descending Cleveland Center
01:34PM 43.3167 -79.0333 19° North 350 403 13,600 -2,580 Descending Toronto Center
01:35PM 43.4000 -79.0167 North 330 380 11,200 -2,160 Descending Toronto Center
01:36PM 43.4833 -78.9833 16° North 310 357 9,300 -1,980 Descending Toronto Center
01:37PM 43.5667 -78.9667 North 310 357 7,300 -1,260 Descending Toronto Center
01:38PM 43.6500 -78.9500 North 310 357 6,800 -1,200 Descending Toronto Center
01:39PM 43.7333 -78.9167 16° North 300 345 5,000 -1,560 Descending Toronto Center
01:40PM 43.8000 -78.9000 10° North 280 322 3,700 -1,500 Descending Toronto Center
01:41PM 43.8500 -78.8667 26° Northeast 230 265 2,100 -1,140 Descending Toronto Center
01:42PM 43.9000 -78.8000 44° Northeast 210 242 1,500 -600 Descending Toronto Center